sensor_id;sensor_type;location;lat;lon;timestamp;P1;durP1;ratioP1;P2;durP2;ratioP2
73331;SDS011;61560;33.718;73.040;2023-01-10T00:00:44;20.35;;;9.60;;
73331;SDS011;61560;33.718;73.040;2023-01-10T00:03:13;23.02;;;10.07;;
73331;SDS011;61560;33.718;73.040;2023-01-10T00:05:39;26.25;;;10.05;;
73331;SDS011;61560;33.718;73.040;2023-01-10T00:08:08;25.65;;;10.55;;
73331;SDS011;61560;33.718;73.040;2023-01-10T00:10:42;26.25;;;10.13;;
73331;SDS011;61560;33.718;73.040;2023-01-10T00:13:15;22.58;;;10.82;;
73331;SDS011;61560;33.718;73.040;2023-01-10T00:15:50;24.17;;;10.40;;
73331;SDS011;61560;33.718;73.040;2023-01-10T00:18:19;28.10;;;12.38;;
73331;SDS011;61560;33.718;73.040;2023-01-10T00:20:47;20.42;;;9.75;;
73331;SDS011;61560;33.718;73.040;2023-01-10T00:23:14;17.55;;;9.63;;
73331;SDS011;61560;33.718;73.040;2023-01-10T00:25:44;27.15;;;11.23;;
73331;SDS011;61560;33.718;73.040;2023-01-10T00:28:11;21.58;;;8.35;;
73331;SDS011;61560;33.718;73.040;2023-01-10T00:30:49;20.13;;;9.75;;
73331;SDS011;61560;33.718;73.040;2023-01-10T00:33:25;26.60;;;10.18;;
73331;SDS011;61560;33.718;73.040;2023-01-10T00:35:57;16.90;;;8.80;;
73331;SDS011;61560;33.718;73.040;2023-01-10T00:38:29;23.95;;;10.75;;
73331;SDS011;61560;33.718;73.040;2023-01-10T00:40:58;20.13;;;8.10;;
73331;SDS011;61560;33.718;73.040;2023-01-10T00:43:25;19.63;;;10.07;;
73331;SDS011;61560;33.718;73.040;2023-01-10T00:46:10;22.00;;;9.05;;
73331;SDS011;61560;33.718;73.040;2023-01-10T00:48:38;23.48;;;11.13;;
73331;SDS011;61560;33.718;73.040;2023-01-10T00:51:06;23.27;;;9.35;;
73331;SDS011;61560;33.718;73.040;2023-01-10T00:53:33;24.73;;;11.10;;
73331;SDS011;61560;33.718;73.040;2023-01-10T00:56:00;17.73;;;9.65;;
73331;SDS011;61560;33.718;73.040;2023-01-10T00:58:27;24.52;;;11.10;;
73331;SDS011;61560;33.718;73.040;2023-01-10T01:00:54;24.80;;;10.63;;
73331;SDS011;61560;33.718;73.040;2023-01-10T01:03:21;24.63;;;9.50;;
73331;SDS011;61560;33.718;73.040;2023-01-10T01:05:48;22.45;;;9.50;;
73331;SDS011;61560;33.718;73.040;2023-01-10T01:08:22;23.95;;;9.60;;
73331;SDS011;61560;33.718;73.040;2023-01-10T01:10:49;21.50;;;10.23;;
73331;SDS011;61560;33.718;73.040;2023-01-10T01:13:19;20.13;;;10.27;;
73331;SDS011;61560;33.718;73.040;2023-01-10T01:15:47;26.73;;;10.13;;
73331;SDS011;61560;33.718;73.040;2023-01-10T01:18:18;19.48;;;10.13;;
73331;SDS011;61560;33.718;73.040;2023-01-10T01:20:46;25.55;;;10.20;;
73331;SDS011;61560;33.718;73.040;2023-01-10T01:23:21;26.67;;;11.02;;
73331;SDS011;61560;33.718;73.040;2023-01-10T01:25:49;22.27;;;10.85;;
73331;SDS011;61560;33.718;73.040;2023-01-10T01:28:18;20.23;;;10.48;;
73331;SDS011;61560;33.718;73.040;2023-01-10T01:30:46;23.80;;;11.90;;
73331;SDS011;61560;33.718;73.040;2023-01-10T01:33:14;22.30;;;11.35;;
73331;SDS011;61560;33.718;73.040;2023-01-10T01:35:45;23.00;;;9.98;;
73331;SDS011;61560;33.718;73.040;2023-01-10T01:38:13;28.23;;;11.30;;
73331;SDS011;61560;33.718;73.040;2023-01-10T01:40:42;22.70;;;10.75;;
73331;SDS011;61560;33.718;73.040;2023-01-10T01:43:18;26.98;;;10.82;;
73331;SDS011;61560;33.718;73.040;2023-01-10T01:45:53;25.67;;;11.77;;
73331;SDS011;61560;33.718;73.040;2023-01-10T01:48:26;24.02;;;11.70;;
73331;SDS011;61560;33.718;73.040;2023-01-10T01:54:17;21.98;;;10.35;;
73331;SDS011;61560;33.718;73.040;2023-01-10T01:56:43;26.10;;;9.30;;
73331;SDS011;61560;33.718;73.040;2023-01-10T02:01:55;21.63;;;10.32;;
73331;SDS011;61560;33.718;73.040;2023-01-10T02:04:31;27.10;;;10.20;;
73331;SDS011;61560;33.718;73.040;2023-01-10T02:07:04;37.55;;;13.32;;
73331;SDS011;61560;33.718;73.040;2023-01-10T02:12:19;21.48;;;10.15;;
73331;SDS011;61560;33.718;73.040;2023-01-10T02:14:47;28.80;;;13.30;;
73331;SDS011;61560;33.718;73.040;2023-01-10T02:17:16;25.50;;;11.35;;
73331;SDS011;61560;33.718;73.040;2023-01-10T02:30:32;39.60;;;14.45;;
73331;SDS011;61560;33.718;73.040;2023-01-10T02:33:05;35.00;;;15.65;;
73331;SDS011;61560;33.718;73.040;2023-01-10T02:35:45;36.63;;;16.77;;
73331;SDS011;61560;33.718;73.040;2023-01-10T02:43:51;306.50;;;107.72;;
73331;SDS011;61560;33.718;73.040;2023-01-10T02:46:26;571.60;;;209.43;;
73331;SDS011;61560;33.718;73.040;2023-01-10T02:48:54;539.45;;;192.30;;
73331;SDS011;61560;33.718;73.040;2023-01-10T02:51:25;550.03;;;208.73;;
73331;SDS011;61560;33.718;73.040;2023-01-10T02:54:10;307.35;;;105.30;;
73331;SDS011;61560;33.718;73.040;2023-01-10T03:03:17;157.70;;;58.47;;
73331;SDS011;61560;33.718;73.040;2023-01-10T03:08:48;91.57;;;35.20;;
73331;SDS011;61560;33.718;73.040;2023-01-10T03:11:22;62.25;;;21.48;;
73331;SDS011;61560;33.718;73.040;2023-01-10T03:14:17;49.83;;;22.20;;
73331;SDS011;61560;33.718;73.040;2023-01-10T03:16:52;49.67;;;19.75;;
73331;SDS011;61560;33.718;73.040;2023-01-10T03:19:29;54.65;;;19.75;;
73331;SDS011;61560;33.718;73.040;2023-01-10T03:22:00;49.67;;;20.42;;
73331;SDS011;61560;33.718;73.040;2023-01-10T03:24:34;50.83;;;19.77;;
73331;SDS011;61560;33.718;73.040;2023-01-10T03:30:17;45.45;;;18.27;;
73331;SDS011;61560;33.718;73.040;2023-01-10T03:32:41;43.05;;;17.77;;
73331;SDS011;61560;33.718;73.040;2023-01-10T03:35:09;36.88;;;18.02;;
73331;SDS011;61560;33.718;73.040;2023-01-10T03:42:45;37.63;;;17.48;;
73331;SDS011;61560;33.718;73.040;2023-01-10T03:46:13;37.00;;;17.35;;
73331;SDS011;61560;33.718;73.040;2023-01-10T03:48:52;35.17;;;17.02;;
73331;SDS011;61560;33.718;73.040;2023-01-10T03:51:24;42.63;;;18.23;;
73331;SDS011;61560;33.718;73.040;2023-01-10T03:53:58;36.78;;;17.20;;
73331;SDS011;61560;33.718;73.040;2023-01-10T03:56:26;53.38;;;19.80;;
73331;SDS011;61560;33.718;73.040;2023-01-10T03:58:53;35.30;;;17.00;;
73331;SDS011;61560;33.718;73.040;2023-01-10T04:01:22;39.20;;;17.33;;
73331;SDS011;61560;33.718;73.040;2023-01-10T04:03:49;41.97;;;15.98;;
73331;SDS011;61560;33.718;73.040;2023-01-10T04:06:16;38.33;;;16.45;;
73331;SDS011;61560;33.718;73.040;2023-01-10T04:08:44;35.40;;;15.95;;
73331;SDS011;61560;33.718;73.040;2023-01-10T04:11:12;40.22;;;16.38;;
73331;SDS011;61560;33.718;73.040;2023-01-10T04:13:38;38.97;;;17.40;;
73331;SDS011;61560;33.718;73.040;2023-01-10T04:16:07;32.38;;;15.52;;
73331;SDS011;61560;33.718;73.040;2023-01-10T04:18:35;41.53;;;16.20;;
73331;SDS011;61560;33.718;73.040;2023-01-10T04:21:03;39.75;;;16.92;;
73331;SDS011;61560;33.718;73.040;2023-01-10T04:23:31;44.45;;;16.45;;
73331;SDS011;61560;33.718;73.040;2023-01-10T04:25:59;41.42;;;15.60;;
73331;SDS011;61560;33.718;73.040;2023-01-10T04:28:25;29.13;;;16.58;;
73331;SDS011;61560;33.718;73.040;2023-01-10T04:30:54;43.80;;;17.08;;
73331;SDS011;61560;33.718;73.040;2023-01-10T04:33:20;43.58;;;16.48;;
73331;SDS011;61560;33.718;73.040;2023-01-10T04:35:48;42.30;;;16.92;;
73331;SDS011;61560;33.718;73.040;2023-01-10T04:38:16;43.13;;;18.42;;
73331;SDS011;61560;33.718;73.040;2023-01-10T04:40:44;43.25;;;17.55;;
73331;SDS011;61560;33.718;73.040;2023-01-10T04:43:17;39.63;;;17.77;;
73331;SDS011;61560;33.718;73.040;2023-01-10T04:45:44;41.95;;;15.50;;
73331;SDS011;61560;33.718;73.040;2023-01-10T04:48:11;36.60;;;15.05;;
73331;SDS011;61560;33.718;73.040;2023-01-10T04:50:38;36.47;;;16.17;;
73331;SDS011;61560;33.718;73.040;2023-01-10T04:53:06;37.10;;;16.95;;
73331;SDS011;61560;33.718;73.040;2023-01-10T04:55:33;33.95;;;16.40;;
73331;SDS011;61560;33.718;73.040;2023-01-10T04:58:00;39.30;;;16.77;;
73331;SDS011;61560;33.718;73.040;2023-01-10T05:00:27;38.30;;;16.63;;
73331;SDS011;61560;33.718;73.040;2023-01-10T05:02:56;35.88;;;16.80;;
73331;SDS011;61560;33.718;73.040;2023-01-10T05:05:23;36.45;;;16.92;;
73331;SDS011;61560;33.718;73.040;2023-01-10T05:07:50;41.13;;;18.60;;
73331;SDS011;61560;33.718;73.040;2023-01-10T05:10:17;45.85;;;19.77;;
73331;SDS011;61560;33.718;73.040;2023-01-10T05:12:45;54.95;;;23.13;;
73331;SDS011;61560;33.718;73.040;2023-01-10T05:15:12;53.95;;;24.42;;
73331;SDS011;61560;33.718;73.040;2023-01-10T05:17:39;63.70;;;25.67;;
73331;SDS011;61560;33.718;73.040;2023-01-10T05:20:06;58.70;;;25.63;;
73331;SDS011;61560;33.718;73.040;2023-01-10T05:22:34;55.08;;;24.50;;
73331;SDS011;61560;33.718;73.040;2023-01-10T05:25:01;57.85;;;24.67;;
73331;SDS011;61560;33.718;73.040;2023-01-10T05:27:29;52.10;;;23.65;;
73331;SDS011;61560;33.718;73.040;2023-01-10T05:29:56;58.47;;;22.58;;
73331;SDS011;61560;33.718;73.040;2023-01-10T05:32:26;51.10;;;21.98;;
73331;SDS011;61560;33.718;73.040;2023-01-10T05:34:54;47.63;;;22.55;;
73331;SDS011;61560;33.718;73.040;2023-01-10T05:37:21;52.25;;;25.33;;
73331;SDS011;61560;33.718;73.040;2023-01-10T05:39:48;61.05;;;24.73;;
73331;SDS011;61560;33.718;73.040;2023-01-10T05:42:15;62.00;;;25.58;;
73331;SDS011;61560;33.718;73.040;2023-01-10T05:44:42;58.70;;;26.17;;
73331;SDS011;61560;33.718;73.040;2023-01-10T05:47:09;62.00;;;27.35;;
73331;SDS011;61560;33.718;73.040;2023-01-10T05:49:36;62.60;;;28.75;;
73331;SDS011;61560;33.718;73.040;2023-01-10T05:52:04;72.03;;;32.38;;
73331;SDS011;61560;33.718;73.040;2023-01-10T05:54:31;75.82;;;34.67;;
73331;SDS011;61560;33.718;73.040;2023-01-10T05:56:58;78.75;;;34.13;;
73331;SDS011;61560;33.718;73.040;2023-01-10T05:59:25;86.03;;;40.40;;
73331;SDS011;61560;33.718;73.040;2023-01-10T06:01:54;100.13;;;41.33;;
73331;SDS011;61560;33.718;73.040;2023-01-10T06:04:21;93.95;;;43.97;;
73331;SDS011;61560;33.718;73.040;2023-01-10T06:06:50;106.43;;;47.38;;
73331;SDS011;61560;33.718;73.040;2023-01-10T06:09:17;104.03;;;48.35;;
73331;SDS011;61560;33.718;73.040;2023-01-10T06:11:44;113.05;;;54.72;;
73331;SDS011;61560;33.718;73.040;2023-01-10T06:14:11;113.80;;;52.10;;
73331;SDS011;61560;33.718;73.040;2023-01-10T06:16:38;115.10;;;53.97;;
73331;SDS011;61560;33.718;73.040;2023-01-10T06:19:06;122.35;;;53.55;;
73331;SDS011;61560;33.718;73.040;2023-01-10T06:21:34;100.97;;;48.40;;
73331;SDS011;61560;33.718;73.040;2023-01-10T06:24:01;94.75;;;44.88;;
73331;SDS011;61560;33.718;73.040;2023-01-10T06:26:28;91.32;;;41.10;;
73331;SDS011;61560;33.718;73.040;2023-01-10T06:29:01;75.53;;;36.70;;
73331;SDS011;61560;33.718;73.040;2023-01-10T06:31:31;73.85;;;33.80;;
73331;SDS011;61560;33.718;73.040;2023-01-10T06:33:57;74.47;;;33.35;;
73331;SDS011;61560;33.718;73.040;2023-01-10T06:36:25;84.10;;;42.95;;
73331;SDS011;61560;33.718;73.040;2023-01-10T06:38:52;59.75;;;26.15;;
73331;SDS011;61560;33.718;73.040;2023-01-10T06:41:20;41.75;;;19.73;;
73331;SDS011;61560;33.718;73.040;2023-01-10T06:43:47;35.97;;;16.75;;
73331;SDS011;61560;33.718;73.040;2023-01-10T06:46:16;28.50;;;13.18;;
73331;SDS011;61560;33.718;73.040;2023-01-10T06:48:44;28.48;;;12.63;;
73331;SDS011;61560;33.718;73.040;2023-01-10T06:51:12;19.15;;;8.90;;
73331;SDS011;61560;33.718;73.040;2023-01-10T06:53:41;13.35;;;7.10;;
73331;SDS011;61560;33.718;73.040;2023-01-10T06:56:08;17.27;;;7.65;;
73331;SDS011;61560;33.718;73.040;2023-01-10T06:58:36;14.10;;;6.30;;
73331;SDS011;61560;33.718;73.040;2023-01-10T07:01:05;11.63;;;5.30;;
73331;SDS011;61560;33.718;73.040;2023-01-10T07:03:33;11.18;;;5.05;;
73331;SDS011;61560;33.718;73.040;2023-01-10T07:06:01;14.93;;;5.38;;
73331;SDS011;61560;33.718;73.040;2023-01-10T07:08:29;8.30;;;4.97;;
73331;SDS011;61560;33.718;73.040;2023-01-10T07:10:56;9.10;;;5.20;;
73331;SDS011;61560;33.718;73.040;2023-01-10T07:13:25;10.63;;;4.40;;
73331;SDS011;61560;33.718;73.040;2023-01-10T07:15:59;10.32;;;5.07;;
73331;SDS011;61560;33.718;73.040;2023-01-10T07:18:32;10.00;;;4.55;;
73331;SDS011;61560;33.718;73.040;2023-01-10T07:21:00;12.25;;;4.85;;
73331;SDS011;61560;33.718;73.040;2023-01-10T07:23:27;9.85;;;4.80;;
73331;SDS011;61560;33.718;73.040;2023-01-10T07:25:56;9.68;;;4.70;;
73331;SDS011;61560;33.718;73.040;2023-01-10T07:28:24;9.60;;;4.88;;
73331;SDS011;61560;33.718;73.040;2023-01-10T07:30:51;7.65;;;4.90;;
73331;SDS011;61560;33.718;73.040;2023-01-10T07:33:20;64.13;;;26.17;;
73331;SDS011;61560;33.718;73.040;2023-01-10T07:35:47;74.13;;;34.33;;
73331;SDS011;61560;33.718;73.040;2023-01-10T07:38:14;83.93;;;35.17;;
73331;SDS011;61560;33.718;73.040;2023-01-10T07:40:41;85.78;;;39.95;;
73331;SDS011;61560;33.718;73.040;2023-01-10T07:43:09;88.40;;;40.97;;
73331;SDS011;61560;33.718;73.040;2023-01-10T07:45:36;87.65;;;42.90;;
73331;SDS011;61560;33.718;73.040;2023-01-10T07:48:03;98.57;;;43.72;;
73331;SDS011;61560;33.718;73.040;2023-01-10T07:50:32;98.82;;;44.35;;
73331;SDS011;61560;33.718;73.040;2023-01-10T07:53:01;96.15;;;42.78;;
73331;SDS011;61560;33.718;73.040;2023-01-10T07:55:30;101.32;;;45.22;;
73331;SDS011;61560;33.718;73.040;2023-01-10T07:57:59;88.53;;;39.67;;
73331;SDS011;61560;33.718;73.040;2023-01-10T08:00:26;88.57;;;41.92;;
73331;SDS011;61560;33.718;73.040;2023-01-10T08:02:53;86.03;;;42.35;;
73331;SDS011;61560;33.718;73.040;2023-01-10T08:05:21;98.10;;;43.22;;
73331;SDS011;61560;33.718;73.040;2023-01-10T08:07:52;95.68;;;42.40;;
73331;SDS011;61560;33.718;73.040;2023-01-10T08:10:21;92.95;;;41.03;;
73331;SDS011;61560;33.718;73.040;2023-01-10T08:12:48;91.22;;;43.47;;
73331;SDS011;61560;33.718;73.040;2023-01-10T08:15:15;86.95;;;40.97;;
73331;SDS011;61560;33.718;73.040;2023-01-10T08:17:42;94.55;;;40.85;;
73331;SDS011;61560;33.718;73.040;2023-01-10T08:20:09;91.05;;;42.00;;
73331;SDS011;61560;33.718;73.040;2023-01-10T08:22:37;92.45;;;44.22;;
73331;SDS011;61560;33.718;73.040;2023-01-10T08:25:04;90.20;;;42.22;;
73331;SDS011;61560;33.718;73.040;2023-01-10T08:27:33;84.82;;;41.10;;
73331;SDS011;61560;33.718;73.040;2023-01-10T08:30:00;95.05;;;40.85;;
73331;SDS011;61560;33.718;73.040;2023-01-10T08:32:27;86.68;;;41.10;;
73331;SDS011;61560;33.718;73.040;2023-01-10T08:34:54;88.85;;;40.60;;
73331;SDS011;61560;33.718;73.040;2023-01-10T08:37:21;85.95;;;39.33;;
73331;SDS011;61560;33.718;73.040;2023-01-10T08:39:48;73.82;;;36.63;;
73331;SDS011;61560;33.718;73.040;2023-01-10T08:42:15;80.80;;;37.38;;
73331;SDS011;61560;33.718;73.040;2023-01-10T08:44:43;82.85;;;37.22;;
73331;SDS011;61560;33.718;73.040;2023-01-10T08:47:10;85.70;;;39.03;;
73331;SDS011;61560;33.718;73.040;2023-01-10T08:49:37;79.78;;;37.67;;
73331;SDS011;61560;33.718;73.040;2023-01-10T08:52:05;81.80;;;38.28;;
73331;SDS011;61560;33.718;73.040;2023-01-10T08:54:32;86.20;;;36.33;;
73331;SDS011;61560;33.718;73.040;2023-01-10T08:56:59;75.63;;;37.42;;
73331;SDS011;61560;33.718;73.040;2023-01-10T08:59:26;73.63;;;35.17;;
73331;SDS011;61560;33.718;73.040;2023-01-10T09:01:53;67.40;;;33.47;;
73331;SDS011;61560;33.718;73.040;2023-01-10T09:04:23;89.15;;;39.10;;
73331;SDS011;61560;33.718;73.040;2023-01-10T09:06:51;74.38;;;35.40;;
73331;SDS011;61560;33.718;73.040;2023-01-10T09:09:19;66.78;;;33.85;;
73331;SDS011;61560;33.718;73.040;2023-01-10T09:11:46;74.03;;;34.53;;
73331;SDS011;61560;33.718;73.040;2023-01-10T09:14:14;72.00;;;32.83;;
73331;SDS011;61560;33.718;73.040;2023-01-10T09:16:41;70.05;;;31.33;;
73331;SDS011;61560;33.718;73.040;2023-01-10T09:19:08;63.20;;;31.02;;
73331;SDS011;61560;33.718;73.040;2023-01-10T09:21:35;72.63;;;31.05;;
73331;SDS011;61560;33.718;73.040;2023-01-10T09:24:02;75.00;;;30.98;;
73331;SDS011;61560;33.718;73.040;2023-01-10T09:26:29;66.97;;;28.92;;
73331;SDS011;61560;33.718;73.040;2023-01-10T09:28:57;64.65;;;27.60;;
73331;SDS011;61560;33.718;73.040;2023-01-10T09:31:24;59.47;;;28.35;;
73331;SDS011;61560;33.718;73.040;2023-01-10T09:33:51;56.97;;;24.58;;
73331;SDS011;61560;33.718;73.040;2023-01-10T09:36:18;48.45;;;23.60;;
73331;SDS011;61560;33.718;73.040;2023-01-10T09:38:45;68.05;;;25.67;;
73331;SDS011;61560;33.718;73.040;2023-01-10T09:52:23;52.97;;;24.15;;
73331;SDS011;61560;33.718;73.040;2023-01-10T09:54:53;52.92;;;22.70;;
73331;SDS011;61560;33.718;73.040;2023-01-10T09:57:23;57.05;;;23.30;;
73331;SDS011;61560;33.718;73.040;2023-01-10T09:59:50;42.75;;;20.98;;
73331;SDS011;61560;33.718;73.040;2023-01-10T10:07:35;45.72;;;20.25;;
73331;SDS011;61560;33.718;73.040;2023-01-10T10:10:03;52.65;;;20.88;;
73331;SDS011;61560;33.718;73.040;2023-01-10T10:28:45;38.58;;;15.98;;
73331;SDS011;61560;33.718;73.040;2023-01-10T10:40:26;22.58;;;9.27;;
73331;SDS011;61560;33.718;73.040;2023-01-10T10:42:56;16.17;;;8.25;;
73331;SDS011;61560;33.718;73.040;2023-01-10T10:54:07;15.20;;;7.13;;
73331;SDS011;61560;33.718;73.040;2023-01-10T10:56:39;15.30;;;7.30;;
73331;SDS011;61560;33.718;73.040;2023-01-10T10:59:07;12.13;;;6.47;;
73331;SDS011;61560;33.718;73.040;2023-01-10T11:01:34;11.30;;;5.85;;
73331;SDS011;61560;33.718;73.040;2023-01-10T11:04:05;15.98;;;6.55;;
73331;SDS011;61560;33.718;73.040;2023-01-10T11:06:39;13.57;;;5.95;;
73331;SDS011;61560;33.718;73.040;2023-01-10T11:09:21;15.93;;;6.28;;
73331;SDS011;61560;33.718;73.040;2023-01-10T11:12:17;11.85;;;5.68;;
73331;SDS011;61560;33.718;73.040;2023-01-10T11:14:48;13.23;;;5.78;;
73331;SDS011;61560;33.718;73.040;2023-01-10T11:17:17;10.35;;;4.97;;
73331;SDS011;61560;33.718;73.040;2023-01-10T11:19:57;12.30;;;4.72;;
73331;SDS011;61560;33.718;73.040;2023-01-10T11:24:59;10.90;;;5.15;;
73331;SDS011;61560;33.718;73.040;2023-01-10T11:27:31;12.70;;;5.28;;
73331;SDS011;61560;33.718;73.040;2023-01-10T11:30:24;14.70;;;5.35;;
73331;SDS011;61560;33.718;73.040;2023-01-10T11:43:29;10.05;;;4.55;;
73331;SDS011;61560;33.718;73.040;2023-01-10T11:46:05;10.50;;;4.43;;
73331;SDS011;61560;33.718;73.040;2023-01-10T11:49:12;9.88;;;4.43;;
73331;SDS011;61560;33.718;73.040;2023-01-10T11:51:46;6.90;;;3.72;;
73331;SDS011;61560;33.718;73.040;2023-01-10T11:59:54;11.02;;;4.40;;
73331;SDS011;61560;33.718;73.040;2023-01-10T12:02:34;6.85;;;4.00;;
73331;SDS011;61560;33.718;73.040;2023-01-10T12:05:16;10.02;;;4.75;;
73331;SDS011;61560;33.718;73.040;2023-01-10T12:08:04;9.52;;;5.00;;
73331;SDS011;61560;33.718;73.040;2023-01-10T12:10:33;10.13;;;4.93;;
73331;SDS011;61560;33.718;73.040;2023-01-10T12:13:13;9.52;;;4.85;;
73331;SDS011;61560;33.718;73.040;2023-01-10T12:15:42;8.33;;;4.87;;
73331;SDS011;61560;33.718;73.040;2023-01-10T12:18:09;9.80;;;4.50;;
73331;SDS011;61560;33.718;73.040;2023-01-10T12:20:43;10.13;;;4.53;;
73331;SDS011;61560;33.718;73.040;2023-01-10T12:23:18;9.45;;;4.55;;
73331;SDS011;61560;33.718;73.040;2023-01-10T12:25:47;11.45;;;5.35;;
73331;SDS011;61560;33.718;73.040;2023-01-10T12:28:22;10.15;;;5.13;;
73331;SDS011;61560;33.718;73.040;2023-01-10T12:30:55;11.05;;;5.53;;
73331;SDS011;61560;33.718;73.040;2023-01-10T12:33:29;12.55;;;5.53;;
73331;SDS011;61560;33.718;73.040;2023-01-10T12:36:03;13.77;;;5.65;;
73331;SDS011;61560;33.718;73.040;2023-01-10T12:38:42;12.45;;;6.10;;
73331;SDS011;61560;33.718;73.040;2023-01-10T12:41:34;15.00;;;5.70;;
73331;SDS011;61560;33.718;73.040;2023-01-10T12:44:39;18.08;;;8.02;;
73331;SDS011;61560;33.718;73.040;2023-01-10T12:47:30;14.32;;;6.75;;
73331;SDS011;61560;33.718;73.040;2023-01-10T12:50:24;15.82;;;7.43;;
73331;SDS011;61560;33.718;73.040;2023-01-10T12:55:41;21.73;;;9.75;;
73331;SDS011;61560;33.718;73.040;2023-01-10T12:58:20;24.05;;;9.88;;
73331;SDS011;61560;33.718;73.040;2023-01-10T13:00:54;25.58;;;8.90;;
73331;SDS011;61560;33.718;73.040;2023-01-10T13:03:28;14.15;;;7.20;;
73331;SDS011;61560;33.718;73.040;2023-01-10T13:05:58;16.73;;;7.22;;
73331;SDS011;61560;33.718;73.040;2023-01-10T13:08:27;16.35;;;8.18;;
73331;SDS011;61560;33.718;73.040;2023-01-10T13:10:59;13.88;;;6.82;;
73331;SDS011;61560;33.718;73.040;2023-01-10T13:13:39;15.18;;;7.30;;
73331;SDS011;61560;33.718;73.040;2023-01-10T13:16:25;16.45;;;6.78;;
73331;SDS011;61560;33.718;73.040;2023-01-10T13:21:36;20.55;;;8.98;;
73331;SDS011;61560;33.718;73.040;2023-01-10T13:24:25;17.80;;;8.80;;
73331;SDS011;61560;33.718;73.040;2023-01-10T13:29:30;22.27;;;9.45;;
73331;SDS011;61560;33.718;73.040;2023-01-10T13:32:15;19.30;;;8.38;;
73331;SDS011;61560;33.718;73.040;2023-01-10T13:34:49;17.63;;;8.55;;
73331;SDS011;61560;33.718;73.040;2023-01-10T13:37:23;19.25;;;8.63;;
73331;SDS011;61560;33.718;73.040;2023-01-10T13:40:02;16.02;;;6.82;;
73331;SDS011;61560;33.718;73.040;2023-01-10T13:42:33;18.83;;;7.95;;
73331;SDS011;61560;33.718;73.040;2023-01-10T13:45:20;16.60;;;7.57;;
73331;SDS011;61560;33.718;73.040;2023-01-10T14:00:41;16.25;;;6.65;;
73331;SDS011;61560;33.718;73.040;2023-01-10T14:03:46;15.20;;;6.70;;
73331;SDS011;61560;33.718;73.040;2023-01-10T14:06:31;12.93;;;5.70;;
73331;SDS011;61560;33.718;73.040;2023-01-10T14:14:22;12.68;;;5.80;;
73331;SDS011;61560;33.718;73.040;2023-01-10T14:16:52;10.77;;;6.13;;
73331;SDS011;61560;33.718;73.040;2023-01-10T14:19:28;11.80;;;5.75;;
73331;SDS011;61560;33.718;73.040;2023-01-10T14:21:58;11.07;;;5.45;;
73331;SDS011;61560;33.718;73.040;2023-01-10T14:24:39;12.05;;;6.18;;
73331;SDS011;61560;33.718;73.040;2023-01-10T14:27:13;11.48;;;5.47;;
73331;SDS011;61560;33.718;73.040;2023-01-10T14:29:47;15.52;;;7.55;;
73331;SDS011;61560;33.718;73.040;2023-01-10T14:32:29;15.85;;;6.82;;
73331;SDS011;61560;33.718;73.040;2023-01-10T14:35:02;16.08;;;7.85;;
73331;SDS011;61560;33.718;73.040;2023-01-10T14:37:36;16.25;;;7.03;;
73331;SDS011;61560;33.718;73.040;2023-01-10T14:43:21;22.77;;;8.70;;
73331;SDS011;61560;33.718;73.040;2023-01-10T14:46:10;18.98;;;8.65;;
73331;SDS011;61560;33.718;73.040;2023-01-10T14:48:48;19.02;;;8.38;;
73331;SDS011;61560;33.718;73.040;2023-01-10T14:53:47;26.85;;;11.07;;
73331;SDS011;61560;33.718;73.040;2023-01-10T14:56:42;24.45;;;10.95;;
73331;SDS011;61560;33.718;73.040;2023-01-10T15:01:58;24.80;;;11.30;;
73331;SDS011;61560;33.718;73.040;2023-01-10T15:04:45;25.58;;;11.95;;
73331;SDS011;61560;33.718;73.040;2023-01-10T15:07:24;26.48;;;11.68;;
73331;SDS011;61560;33.718;73.040;2023-01-10T15:10:24;26.75;;;11.75;;
73331;SDS011;61560;33.718;73.040;2023-01-10T15:12:59;24.30;;;10.43;;
73331;SDS011;61560;33.718;73.040;2023-01-10T15:15:32;28.92;;;12.60;;
73331;SDS011;61560;33.718;73.040;2023-01-10T15:18:09;25.15;;;10.13;;
73331;SDS011;61560;33.718;73.040;2023-01-10T15:20:43;26.33;;;10.77;;
73331;SDS011;61560;33.718;73.040;2023-01-10T15:23:11;21.38;;;10.60;;
73331;SDS011;61560;33.718;73.040;2023-01-10T15:25:40;27.50;;;11.35;;
73331;SDS011;61560;33.718;73.040;2023-01-10T15:28:15;31.63;;;12.10;;
73331;SDS011;61560;33.718;73.040;2023-01-10T15:30:46;30.17;;;14.55;;
73331;SDS011;61560;33.718;73.040;2023-01-10T15:33:14;28.92;;;12.73;;
73331;SDS011;61560;33.718;73.040;2023-01-10T15:35:46;29.60;;;13.23;;
73331;SDS011;61560;33.718;73.040;2023-01-10T15:38:14;26.85;;;12.98;;
73331;SDS011;61560;33.718;73.040;2023-01-10T15:41:05;35.83;;;13.02;;
73331;SDS011;61560;33.718;73.040;2023-01-10T15:43:35;29.60;;;13.57;;
73331;SDS011;61560;33.718;73.040;2023-01-10T15:46:03;38.83;;;13.90;;
73331;SDS011;61560;33.718;73.040;2023-01-10T15:48:35;27.35;;;12.15;;
73331;SDS011;61560;33.718;73.040;2023-01-10T15:54:06;46.22;;;15.15;;
73331;SDS011;61560;33.718;73.040;2023-01-10T15:56:53;30.05;;;12.95;;
73331;SDS011;61560;33.718;73.040;2023-01-10T15:59:31;39.80;;;15.90;;
73331;SDS011;61560;33.718;73.040;2023-01-10T16:05:12;31.58;;;13.63;;
73331;SDS011;61560;33.718;73.040;2023-01-10T16:07:46;35.72;;;15.23;;
73331;SDS011;61560;33.718;73.040;2023-01-10T16:10:26;37.25;;;16.45;;
73331;SDS011;61560;33.718;73.040;2023-01-10T16:12:53;37.25;;;16.65;;
73331;SDS011;61560;33.718;73.040;2023-01-10T16:15:54;45.42;;;17.45;;
73331;SDS011;61560;33.718;73.040;2023-01-10T16:18:22;42.70;;;15.27;;
73331;SDS011;61560;33.718;73.040;2023-01-10T16:20:51;32.95;;;15.50;;
73331;SDS011;61560;33.718;73.040;2023-01-10T16:23:22;33.88;;;15.60;;
73331;SDS011;61560;33.718;73.040;2023-01-10T16:25:59;28.63;;;13.75;;
73331;SDS011;61560;33.718;73.040;2023-01-10T16:28:32;33.70;;;15.38;;
73331;SDS011;61560;33.718;73.040;2023-01-10T16:31:04;39.13;;;16.27;;
73331;SDS011;61560;33.718;73.040;2023-01-10T16:33:36;38.00;;;16.83;;
73331;SDS011;61560;33.718;73.040;2023-01-10T16:36:08;40.28;;;16.67;;
73331;SDS011;61560;33.718;73.040;2023-01-10T16:41:43;38.00;;;14.75;;
73331;SDS011;61560;33.718;73.040;2023-01-10T16:44:30;31.27;;;14.18;;
73331;SDS011;61560;33.718;73.040;2023-01-10T16:46:58;32.30;;;13.68;;
73331;SDS011;61560;33.718;73.040;2023-01-10T16:49:25;32.63;;;13.43;;
73331;SDS011;61560;33.718;73.040;2023-01-10T16:51:52;27.92;;;12.25;;
73331;SDS011;61560;33.718;73.040;2023-01-10T16:54:22;27.42;;;12.35;;
73331;SDS011;61560;33.718;73.040;2023-01-10T16:56:54;35.42;;;12.50;;
73331;SDS011;61560;33.718;73.040;2023-01-10T16:59:24;31.70;;;12.82;;
73331;SDS011;61560;33.718;73.040;2023-01-10T17:01:55;31.98;;;13.02;;
73331;SDS011;61560;33.718;73.040;2023-01-10T17:04:24;27.52;;;12.65;;
73331;SDS011;61560;33.718;73.040;2023-01-10T17:06:52;30.77;;;12.65;;
73331;SDS011;61560;33.718;73.040;2023-01-10T17:09:22;25.30;;;12.07;;
73331;SDS011;61560;33.718;73.040;2023-01-10T17:11:54;27.65;;;13.05;;
73331;SDS011;61560;33.718;73.040;2023-01-10T17:14:30;27.17;;;11.90;;